createdAt,value
2024-02-06T00:02:02.830Z,95.90
2024-02-06T00:04:30.108Z,95.90
2024-02-06T00:06:57.382Z,96.00
2024-02-06T00:09:24.381Z,96.10
2024-02-06T00:11:51.578Z,96.30
2024-02-06T00:14:18.651Z,96.30
2024-02-06T00:16:47.389Z,96.30
2024-02-06T00:19:14.713Z,96.20
2024-02-06T00:21:41.798Z,96.40
2024-02-06T00:24:08.960Z,96.00
2024-02-06T00:26:36.030Z,96.00
2024-02-06T00:29:03.132Z,96.00
2024-02-06T00:31:30.266Z,96.00
2024-02-06T00:33:57.413Z,96.00
2024-02-06T00:36:24.476Z,95.80
2024-02-06T00:38:51.634Z,95.70
2024-02-06T00:41:18.746Z,95.70
2024-02-06T00:43:45.908Z,95.70
2024-02-06T00:46:13.012Z,95.90
2024-02-06T00:48:40.225Z,96.00
2024-02-06T00:51:10.153Z,95.90
2024-02-06T00:53:37.366Z,95.70
2024-02-06T00:56:07.721Z,95.70
2024-02-06T00:58:34.906Z,95.80
2024-02-06T01:01:02.375Z,95.70
2024-02-06T01:03:29.590Z,95.70
2024-02-06T01:05:56.680Z,95.80
2024-02-06T01:08:23.801Z,95.90
2024-02-06T01:10:50.866Z,95.90
2024-02-06T01:13:17.900Z,96.00
2024-02-06T01:15:45.103Z,96.00
2024-02-06T01:18:12.284Z,96.10
2024-02-06T01:20:39.394Z,96.10
2024-02-06T01:23:06.516Z,96.20
2024-02-06T01:25:33.582Z,96.30
2024-02-06T01:28:00.730Z,96.40
2024-02-06T01:30:29.209Z,96.50
2024-02-06T01:32:56.859Z,96.70
2024-02-06T01:35:24.234Z,96.70
2024-02-06T01:37:51.382Z,96.60
2024-02-06T01:40:18.967Z,96.50
2024-02-06T01:42:46.144Z,96.50
2024-02-06T01:45:13.213Z,96.40
2024-02-06T01:47:40.852Z,96.50
2024-02-06T01:50:08.325Z,96.50
2024-02-06T01:52:36.125Z,96.60
2024-02-06T01:55:03.712Z,96.60
2024-02-06T01:57:33.493Z,96.60
2024-02-06T02:00:01.420Z,96.70
2024-02-06T02:02:28.583Z,96.80
2024-02-06T02:04:55.894Z,96.80
2024-02-06T02:07:23.164Z,96.90
2024-02-06T02:09:50.261Z,96.90
2024-02-06T02:12:17.238Z,96.90
2024-02-06T02:14:44.301Z,96.90
2024-02-06T02:17:11.291Z,96.90
2024-02-06T02:19:38.425Z,97.00
2024-02-06T02:22:05.566Z,97.00
2024-02-06T02:24:32.690Z,97.00
2024-02-06T02:27:00.524Z,97.00
2024-02-06T02:29:28.208Z,97.20
2024-02-06T02:31:55.969Z,97.20
2024-02-06T02:34:23.259Z,97.20
2024-02-06T02:36:50.307Z,97.20
2024-02-06T02:39:17.358Z,97.20
2024-02-06T02:41:44.384Z,97.00
2024-02-06T02:44:11.482Z,97.00
2024-02-06T02:46:38.600Z,97.10
2024-02-06T02:49:05.790Z,97.20
2024-02-06T02:51:34.117Z,97.20
2024-02-06T02:54:01.213Z,97.20
2024-02-06T02:56:28.304Z,97.20
2024-02-06T02:58:55.376Z,97.20
2024-02-06T03:01:22.440Z,97.20
2024-02-06T03:03:49.470Z,97.30
2024-02-06T03:06:20.574Z,97.30
2024-02-06T03:08:47.806Z,97.30
2024-02-06T03:11:14.861Z,97.20
2024-02-06T03:13:43.475Z,97.30
2024-02-06T03:16:10.912Z,97.30
2024-02-06T03:18:38.878Z,97.20
2024-02-06T03:21:06.581Z,97.20
2024-02-06T03:23:33.606Z,97.30
2024-02-06T03:26:00.583Z,97.40
2024-02-06T03:28:28.138Z,97.40
2024-02-06T03:30:55.551Z,97.40
2024-02-06T03:33:22.678Z,97.60
2024-02-06T03:35:49.724Z,97.70
2024-02-06T03:38:19.196Z,97.80
2024-02-06T03:40:46.187Z,97.70
2024-02-06T03:43:13.283Z,97.70
2024-02-06T03:45:40.533Z,97.60
2024-02-06T03:48:08.007Z,97.50
2024-02-06T03:50:35.066Z,97.50
2024-02-06T03:53:03.025Z,97.60
2024-02-06T03:55:30.106Z,97.60
2024-02-06T03:57:57.224Z,97.60
2024-02-06T04:00:24.508Z,97.60
2024-02-06T04:02:51.532Z,97.60
2024-02-06T04:05:18.524Z,97.60
2024-02-06T04:07:45.618Z,97.70
2024-02-06T04:10:12.830Z,97.60
2024-02-06T04:12:39.911Z,97.60
2024-02-06T04:15:09.519Z,97.60
2024-02-06T04:17:36.824Z,97.60
2024-02-06T04:20:04.223Z,97.60
2024-02-06T04:22:31.402Z,97.60
2024-02-06T04:24:58.467Z,97.60
2024-02-06T04:27:25.488Z,97.60
2024-02-06T04:29:52.414Z,97.80
2024-02-06T04:32:19.880Z,97.40
2024-02-06T04:34:47.248Z,97.50
2024-02-06T04:37:15.203Z,97.50
2024-02-06T04:39:42.547Z,97.50
2024-02-06T04:42:09.742Z,97.50
2024-02-06T04:44:37.521Z,97.70
2024-02-06T04:47:05.387Z,97.60
2024-02-06T04:49:33.376Z,97.50
2024-02-06T04:52:00.829Z,97.50
2024-02-06T04:54:28.225Z,97.50
2024-02-06T04:56:55.628Z,97.50
2024-02-06T04:59:23.960Z,97.40
2024-02-06T05:01:51.204Z,97.40
2024-02-06T05:04:18.710Z,97.40
2024-02-06T05:06:47.361Z,97.40
2024-02-06T05:09:15.277Z,97.40
2024-02-06T05:11:43.259Z,97.40
2024-02-06T05:14:10.422Z,97.50
2024-02-06T05:16:37.944Z,97.40
2024-02-06T05:19:05.249Z,97.50
2024-02-06T05:21:32.613Z,97.50
2024-02-06T05:24:00.087Z,97.50
2024-02-06T05:26:27.516Z,97.70
2024-02-06T05:28:54.635Z,97.60
2024-02-06T05:31:21.880Z,97.60
2024-02-06T05:33:49.273Z,97.60
2024-02-06T05:36:16.554Z,97.60
2024-02-06T05:38:44.043Z,97.60
2024-02-06T05:41:14.472Z,97.70
2024-02-06T05:43:41.945Z,97.60
2024-02-06T05:46:10.195Z,97.60
2024-02-06T05:48:40.706Z,97.60
2024-02-06T05:51:10.025Z,97.70
2024-02-06T05:53:37.311Z,97.70
2024-02-06T05:56:06.261Z,97.80
2024-02-06T05:58:34.005Z,97.90
2024-02-06T06:01:01.715Z,97.80
2024-02-06T06:03:29.247Z,97.90
2024-02-06T06:05:58.090Z,98.00
2024-02-06T06:08:25.405Z,98.20
2024-02-06T06:10:52.841Z,98.20
2024-02-06T06:13:20.418Z,98.40
2024-02-06T06:15:48.070Z,98.40
2024-02-06T06:18:16.467Z,98.40
2024-02-06T06:20:44.397Z,98.30
2024-02-06T06:23:12.424Z,98.40
2024-02-06T06:25:41.032Z,98.30
2024-02-06T06:28:09.552Z,98.40
2024-02-06T06:30:37.151Z,98.60
2024-02-06T06:33:05.339Z,98.70
2024-02-06T06:35:32.892Z,98.70
2024-02-06T06:38:00.556Z,98.80
2024-02-06T06:40:28.503Z,98.90
2024-02-06T06:42:56.187Z,98.90
2024-02-06T06:45:23.880Z,98.90
2024-02-06T06:47:51.674Z,99.00
2024-02-06T06:50:19.507Z,99.10
2024-02-06T06:52:47.527Z,99.10
2024-02-06T06:55:14.778Z,99.30
2024-02-06T06:57:44.926Z,99.40
2024-02-06T07:00:14.169Z,99.40
2024-02-06T07:02:42.107Z,99.50
2024-02-06T07:05:13.491Z,99.50
2024-02-06T07:07:41.267Z,99.50
2024-02-06T07:10:09.579Z,99.50
2024-02-06T07:12:37.306Z,99.40
2024-02-06T07:15:05.368Z,99.40
2024-02-06T07:17:33.296Z,99.40
2024-02-06T07:20:01.307Z,99.50
2024-02-06T07:22:29.272Z,99.60
2024-02-06T07:24:57.172Z,99.60
2024-02-06T07:27:25.472Z,99.70
2024-02-06T07:29:53.408Z,99.80
2024-02-06T07:32:20.803Z,99.90
2024-02-06T07:34:48.914Z,99.90
2024-02-06T07:37:16.959Z,99.90
2024-02-06T07:39:44.626Z,99.90
2024-02-06T07:42:13.072Z,99.90
2024-02-06T07:44:40.902Z,99.90
2024-02-06T07:47:09.063Z,99.90
2024-02-06T07:49:37.046Z,99.90
2024-02-06T07:52:06.935Z,99.90
2024-02-06T07:54:34.949Z,99.90
2024-02-06T07:57:02.886Z,99.90
2024-02-06T07:59:30.760Z,99.90
2024-02-06T08:01:58.772Z,99.90
2024-02-06T08:04:26.507Z,99.90
2024-02-06T08:06:54.201Z,99.90
2024-02-06T08:09:21.940Z,99.90
2024-02-06T08:11:49.817Z,99.90
2024-02-06T08:14:18.273Z,99.90
2024-02-06T08:16:46.562Z,99.90
2024-02-06T08:19:15.331Z,99.90
2024-02-06T08:21:42.700Z,99.90
2024-02-06T08:24:11.491Z,99.90
2024-02-06T08:26:40.078Z,99.90
2024-02-06T08:29:07.709Z,99.90
2024-02-06T08:31:35.816Z,99.90
2024-02-06T08:34:03.489Z,99.90
2024-02-06T08:36:31.058Z,99.90
2024-02-06T08:38:59.334Z,99.90
2024-02-06T08:41:30.633Z,99.90
2024-02-06T08:43:58.665Z,99.90
2024-02-06T08:46:29.826Z,99.90
2024-02-06T08:48:57.887Z,99.90
2024-02-06T08:51:25.696Z,99.90
2024-02-06T08:53:54.728Z,99.90
2024-02-06T08:56:23.485Z,99.90
2024-02-06T08:58:51.587Z,99.80
2024-02-06T09:01:19.748Z,99.60
2024-02-06T09:03:48.752Z,99.60
2024-02-06T09:06:16.518Z,99.40
2024-02-06T09:08:44.913Z,99.30
2024-02-06T09:11:13.009Z,99.10
2024-02-06T09:13:40.281Z,98.90
2024-02-06T09:16:10.774Z,98.80
2024-02-06T09:18:38.552Z,98.80
2024-02-06T09:21:07.498Z,98.80
2024-02-06T09:23:36.152Z,98.90
2024-02-06T09:26:04.215Z,98.90
2024-02-06T09:28:32.109Z,98.80
2024-02-06T09:30:59.568Z,98.70
2024-02-06T09:33:27.429Z,98.50
2024-02-06T09:35:54.547Z,98.40
2024-02-06T09:38:22.326Z,98.30
2024-02-06T09:40:51.912Z,98.30
2024-02-06T09:43:20.636Z,98.30
2024-02-06T09:45:48.379Z,98.20
2024-02-06T09:48:16.452Z,98.10
2024-02-06T09:50:45.042Z,98.00
2024-02-06T09:53:14.353Z,97.90
2024-02-06T09:55:49.126Z,97.80
2024-02-06T09:58:18.087Z,97.80
2024-02-06T10:00:48.991Z,97.70
2024-02-06T10:03:31.758Z,97.60
2024-02-06T10:06:09.012Z,97.50
2024-02-06T10:08:37.446Z,97.40
2024-02-06T10:11:07.897Z,97.30
2024-02-06T10:13:37.151Z,97.20
2024-02-06T10:16:04.725Z,97.10
2024-02-06T10:18:33.221Z,97.00
2024-02-06T10:21:01.271Z,96.80
2024-02-06T10:23:29.160Z,96.60
2024-02-06T10:26:04.844Z,96.50
2024-02-06T10:28:32.697Z,96.30
2024-02-06T10:31:00.760Z,96.30
2024-02-06T10:33:31.075Z,96.30
2024-02-06T10:36:02.754Z,96.20
2024-02-06T10:38:31.182Z,96.00
2024-02-06T10:41:09.555Z,96.00
2024-02-06T10:43:47.405Z,95.90
2024-02-06T10:46:23.613Z,95.80
2024-02-06T10:48:54.437Z,95.40
2024-02-06T10:51:29.431Z,95.30
2024-02-06T10:53:58.803Z,95.20
2024-02-06T10:56:27.890Z,95.10
2024-02-06T10:58:59.544Z,94.90
2024-02-06T11:01:38.454Z,94.90
2024-02-06T11:04:11.588Z,95.00
2024-02-06T11:06:54.198Z,94.80
2024-02-06T11:09:29.287Z,94.80
2024-02-06T11:11:59.860Z,94.60
2024-02-06T11:14:29.646Z,94.70
2024-02-06T11:17:00.698Z,94.60
2024-02-06T11:19:47.305Z,94.60
2024-02-06T11:22:26.056Z,94.50
2024-02-06T11:24:55.465Z,94.50
2024-02-06T11:27:23.593Z,94.40
2024-02-06T11:29:52.308Z,94.30
2024-02-06T11:32:20.211Z,94.30
2024-02-06T11:34:56.894Z,93.90
2024-02-06T11:37:28.979Z,93.70
2024-02-06T11:40:17.020Z,93.70
2024-02-06T11:42:45.215Z,93.60
2024-02-06T11:45:20.306Z,93.50
2024-02-06T11:47:59.362Z,93.30
2024-02-06T11:50:37.381Z,93.20
2024-02-06T11:53:16.659Z,93.20
2024-02-06T11:55:45.609Z,93.20
2024-02-06T11:58:14.789Z,93.10
2024-02-06T12:00:42.876Z,93.00
2024-02-06T12:03:13.668Z,92.80
2024-02-06T12:05:44.111Z,92.70
2024-02-06T12:08:22.490Z,92.60
2024-02-06T12:10:51.386Z,92.50
2024-02-06T12:13:23.677Z,92.50
2024-02-06T12:15:52.129Z,92.30
2024-02-06T12:18:21.965Z,92.10
2024-02-06T12:20:50.193Z,91.90
2024-02-06T12:23:18.406Z,91.80
2024-02-06T12:25:50.672Z,91.50
2024-02-06T12:28:18.801Z,91.30
2024-02-06T12:30:51.949Z,91.20
2024-02-06T12:33:21.040Z,91.10
2024-02-06T12:35:49.091Z,91.10
2024-02-06T12:38:20.586Z,91.00
2024-02-06T12:40:48.164Z,90.70
2024-02-06T12:43:18.117Z,90.60
2024-02-06T12:45:45.966Z,90.40
2024-02-06T12:48:14.060Z,90.20
2024-02-06T12:50:43.776Z,90.10
2024-02-06T12:53:11.311Z,90.10
2024-02-06T12:55:41.738Z,90.10
2024-02-06T12:58:09.502Z,90.00
2024-02-06T13:00:37.407Z,90.00
2024-02-06T13:03:05.725Z,89.40
2024-02-06T13:05:37.073Z,88.80
2024-02-06T13:08:14.056Z,88.90
2024-02-06T13:10:42.368Z,88.80
2024-02-06T13:13:10.468Z,88.80
2024-02-06T13:15:38.151Z,88.10
2024-02-06T13:18:06.282Z,88.00
2024-02-06T13:20:39.325Z,88.10
2024-02-06T13:23:12.481Z,88.00
2024-02-06T13:25:40.414Z,87.90
2024-02-06T13:28:08.674Z,87.60
2024-02-06T13:30:38.024Z,87.30
2024-02-06T13:33:07.754Z,87.10
2024-02-06T13:35:35.623Z,87.20
2024-02-06T13:38:05.520Z,87.20
2024-02-06T13:40:33.929Z,87.10
2024-02-06T13:43:01.592Z,86.70
2024-02-06T13:45:29.059Z,86.20
2024-02-06T13:47:57.096Z,86.20
2024-02-06T13:50:25.214Z,85.70
2024-02-06T13:52:52.382Z,85.90
2024-02-06T13:55:20.898Z,86.10
2024-02-06T13:57:48.858Z,86.10
2024-02-06T14:00:16.202Z,85.80
2024-02-06T14:02:44.178Z,85.80
2024-02-06T14:05:12.785Z,86.10
2024-02-06T14:07:40.429Z,86.00
2024-02-06T14:10:09.083Z,86.30
2024-02-06T14:12:44.539Z,86.00
2024-02-06T14:15:18.722Z,86.10
2024-02-06T14:17:47.928Z,86.60
2024-02-06T14:20:16.973Z,86.80
2024-02-06T14:22:46.224Z,86.80
2024-02-06T14:25:13.988Z,86.90
2024-02-06T14:27:42.003Z,86.90
2024-02-06T14:30:10.150Z,86.90
2024-02-06T14:32:37.883Z,87.00
2024-02-06T14:35:06.613Z,87.10
2024-02-06T14:37:34.013Z,87.20
2024-02-06T14:40:02.508Z,87.10
2024-02-06T14:42:31.681Z,87.40
2024-02-06T14:44:59.240Z,87.70
2024-02-06T14:47:26.727Z,87.90
2024-02-06T14:49:54.281Z,87.90
2024-02-06T14:52:21.860Z,87.90
2024-02-06T14:54:50.406Z,88.10
2024-02-06T14:57:17.867Z,88.40
2024-02-06T14:59:45.233Z,88.60
2024-02-06T15:02:14.009Z,89.00
2024-02-06T15:04:41.591Z,89.20
2024-02-06T15:07:09.491Z,89.30
2024-02-06T15:09:38.291Z,89.40
2024-02-06T15:12:06.261Z,89.50
2024-02-06T15:14:34.054Z,89.60
2024-02-06T15:17:01.704Z,89.70
2024-02-06T15:19:29.287Z,89.60
2024-02-06T15:21:57.490Z,89.60
2024-02-06T15:24:26.228Z,89.70
2024-02-06T15:26:57.670Z,89.80
2024-02-06T15:29:25.905Z,90.00
2024-02-06T15:31:53.600Z,90.00
2024-02-06T15:34:21.578Z,90.10
2024-02-06T15:36:49.757Z,90.10
2024-02-06T15:39:17.391Z,90.20
2024-02-06T15:41:44.695Z,90.20
2024-02-06T15:44:14.339Z,90.30
2024-02-06T15:46:43.366Z,90.40
2024-02-06T15:49:11.085Z,90.50
2024-02-06T15:51:38.672Z,90.60
2024-02-06T15:54:09.595Z,90.60
2024-02-06T15:58:13.318Z,90.60
2024-02-06T16:00:44.367Z,90.90
2024-02-06T16:03:12.606Z,90.90
2024-02-06T16:05:41.131Z,91.00
2024-02-06T16:08:23.072Z,91.00
2024-02-06T16:11:05.708Z,91.20
2024-02-06T16:13:42.740Z,91.20
2024-02-06T16:16:20.996Z,91.40
2024-02-06T16:18:49.859Z,91.40
2024-02-06T16:21:20.352Z,91.60
2024-02-06T16:23:50.857Z,91.70
2024-02-06T16:26:19.811Z,91.80
2024-02-06T16:28:50.203Z,91.90
2024-02-06T16:31:20.967Z,92.00
2024-02-06T16:33:53.846Z,92.20
2024-02-06T16:36:23.079Z,92.30
2024-02-06T16:38:52.425Z,92.40
2024-02-06T16:41:21.848Z,92.50
2024-02-06T16:43:53.504Z,92.60
2024-02-06T16:46:28.225Z,92.70
2024-02-06T16:49:05.022Z,92.80
2024-02-06T16:51:39.585Z,92.80
2024-02-06T16:54:07.542Z,92.90
2024-02-06T16:56:47.206Z,93.00
2024-02-06T16:59:18.525Z,93.10
2024-02-06T17:01:52.440Z,93.20
2024-02-06T17:04:21.697Z,93.30
2024-02-06T17:06:49.495Z,93.30
2024-02-06T17:09:23.292Z,93.40
2024-02-06T17:11:51.530Z,93.50
2024-02-06T17:14:19.973Z,93.60
2024-02-06T17:16:49.201Z,93.60
2024-02-06T17:19:18.294Z,93.70
2024-02-06T17:21:46.716Z,93.80
2024-02-06T17:24:17.714Z,93.90
2024-02-06T17:26:45.494Z,94.00
2024-02-06T17:29:13.005Z,94.10
2024-02-06T17:31:41.985Z,94.20
2024-02-06T17:34:18.650Z,94.20
2024-02-06T17:36:49.998Z,94.20
2024-02-06T17:39:22.845Z,94.20
2024-02-06T17:41:53.747Z,94.20
2024-02-06T17:44:24.381Z,94.20
2024-02-06T17:46:52.515Z,94.30
2024-02-06T17:49:22.866Z,94.30
2024-02-06T17:51:55.502Z,94.40
2024-02-06T17:54:26.441Z,94.50
2024-02-06T17:56:54.375Z,94.70
2024-02-06T17:59:22.114Z,94.70
2024-02-06T18:01:49.711Z,94.80
2024-02-06T18:04:18.562Z,94.80
2024-02-06T18:06:46.305Z,94.80
2024-02-06T18:09:16.726Z,94.90
2024-02-06T18:11:44.673Z,95.00
2024-02-06T18:14:11.986Z,95.10
2024-02-06T18:17:03.283Z,95.20
2024-02-06T18:19:32.261Z,95.20
2024-02-06T18:22:02.366Z,95.20
2024-02-06T18:24:30.275Z,95.30
2024-02-06T18:27:04.390Z,95.30
2024-02-06T18:33:07.575Z,95.50
2024-02-06T18:35:41.448Z,95.50
2024-02-06T18:38:10.866Z,95.50
2024-02-06T18:40:39.729Z,95.60
2024-02-06T18:43:07.128Z,95.70
2024-02-06T18:45:42.635Z,95.80
2024-02-06T18:48:13.894Z,95.90
2024-02-06T18:50:51.605Z,95.90
2024-02-06T18:53:19.689Z,96.00
2024-02-06T18:55:59.532Z,96.10
2024-02-06T18:58:31.884Z,96.20
2024-02-06T19:01:03.500Z,96.20
2024-02-06T19:03:31.946Z,96.20
2024-02-06T19:06:03.137Z,96.30
2024-02-06T19:08:36.972Z,96.40
2024-02-06T19:11:08.966Z,96.40
2024-02-06T19:13:37.151Z,96.40
2024-02-06T19:16:08.708Z,96.40
2024-02-06T19:18:43.196Z,96.40
2024-02-06T19:21:11.561Z,96.50
2024-02-06T19:23:47.876Z,96.50
2024-02-06T19:26:23.864Z,96.50
2024-02-06T19:28:52.442Z,96.60
2024-02-06T19:31:20.831Z,96.70
2024-02-06T19:33:55.309Z,96.80
2024-02-06T19:36:28.329Z,96.80
2024-02-06T19:38:59.783Z,96.80
2024-02-06T19:41:32.520Z,96.80
2024-02-06T19:44:04.377Z,96.80
2024-02-06T19:46:32.569Z,96.80
2024-02-06T19:51:52.293Z,97.00
2024-02-06T19:54:20.447Z,97.00
2024-02-06T19:56:49.015Z,97.10
2024-02-06T19:59:17.411Z,97.10
2024-02-06T20:01:46.084Z,97.20
2024-02-06T20:04:19.160Z,97.10
2024-02-06T20:06:49.164Z,97.10
2024-02-06T20:09:17.233Z,97.10
2024-02-06T20:11:55.878Z,97.10
2024-02-06T20:14:24.265Z,97.10
2024-02-06T20:16:52.392Z,97.10
2024-02-06T20:19:29.675Z,97.20
2024-02-06T20:21:58.335Z,97.30
2024-02-06T20:24:27.329Z,97.30
2024-02-06T20:26:55.478Z,97.30
2024-02-06T20:29:22.892Z,97.40
2024-02-06T20:31:50.671Z,97.40
2024-02-06T20:34:18.476Z,97.50
2024-02-06T20:36:46.917Z,97.40
2024-02-06T20:39:14.728Z,97.50
2024-02-06T20:41:42.102Z,97.50
2024-02-06T20:44:12.517Z,97.50
2024-02-06T20:46:41.287Z,97.40
2024-02-06T20:49:12.748Z,97.40
2024-02-06T20:51:41.080Z,97.30
2024-02-06T20:54:08.572Z,97.20
2024-02-06T20:56:36.323Z,97.20
2024-02-06T20:59:05.512Z,97.20
2024-02-06T21:01:34.650Z,97.20
2024-02-06T21:04:04.021Z,97.30
2024-02-06T21:06:33.432Z,97.30
2024-02-06T21:09:05.059Z,97.30
2024-02-06T21:11:32.605Z,97.30
2024-02-06T21:14:02.108Z,97.30
2024-02-06T21:16:30.412Z,97.30
2024-02-06T21:18:58.567Z,97.40
2024-02-06T21:21:35.683Z,97.40
2024-02-06T21:24:02.889Z,97.50
2024-02-06T21:26:30.180Z,97.50
2024-02-06T21:28:58.001Z,97.50
2024-02-06T21:31:29.726Z,97.50
2024-02-06T21:34:01.557Z,97.50
2024-02-06T21:36:40.558Z,97.60
2024-02-06T21:39:09.105Z,97.70
2024-02-06T21:41:38.362Z,97.70
2024-02-06T21:44:05.894Z,97.70
2024-02-06T21:46:34.409Z,97.70
2024-02-06T21:49:05.565Z,97.70
2024-02-06T21:51:37.330Z,97.80
2024-02-06T21:54:05.462Z,97.90
2024-02-06T21:56:33.571Z,98.00
2024-02-06T21:59:05.271Z,98.00
2024-02-06T22:01:37.673Z,98.00
2024-02-06T22:04:11.174Z,98.10
2024-02-06T22:06:48.678Z,98.20
2024-02-06T22:09:18.701Z,98.30
2024-02-06T22:11:48.601Z,98.30
2024-02-06T22:14:22.602Z,98.30
2024-02-06T22:16:51.580Z,98.30
2024-02-06T22:19:26.376Z,98.40
2024-02-06T22:21:54.762Z,98.30
2024-02-06T22:24:27.973Z,98.30
2024-02-06T22:26:55.614Z,98.40
2024-02-06T22:29:25.171Z,98.40
2024-02-06T22:31:53.341Z,98.50
2024-02-06T22:34:21.164Z,98.50
2024-02-06T22:36:51.031Z,98.50
2024-02-06T22:39:18.900Z,98.60
2024-02-06T22:41:52.782Z,98.70
2024-02-06T22:44:25.782Z,98.70
2024-02-06T22:46:53.647Z,98.70
2024-02-06T22:49:21.347Z,98.70
2024-02-06T22:51:48.794Z,98.70
2024-02-06T22:54:19.639Z,98.70
2024-02-06T22:56:51.708Z,98.70
2024-02-06T22:59:23.904Z,98.70
2024-02-06T23:01:51.596Z,98.70
2024-02-06T23:04:23.925Z,98.70
2024-02-06T23:06:55.021Z,98.60
2024-02-06T23:09:23.367Z,98.50
2024-02-06T23:11:56.008Z,98.50
2024-02-06T23:14:24.039Z,98.60
2024-02-06T23:16:52.755Z,98.60
2024-02-06T23:19:21.613Z,98.50
2024-02-06T23:21:51.173Z,98.60
2024-02-06T23:24:19.022Z,98.50
2024-02-06T23:26:52.154Z,98.60
2024-02-06T23:29:20.351Z,98.70
2024-02-06T23:31:48.206Z,98.60
2024-02-06T23:34:15.854Z,98.60
2024-02-06T23:36:43.789Z,98.60
2024-02-06T23:39:15.967Z,98.70
2024-02-06T23:41:48.404Z,98.80
2024-02-06T23:44:23.379Z,98.80
2024-02-06T23:46:50.959Z,98.90
2024-02-06T23:49:28.500Z,99.00
2024-02-06T23:51:55.983Z,99.10
2024-02-06T23:54:25.426Z,99.10
2024-02-06T23:56:56.163Z,99.10
2024-02-06T23:59:24.957Z,99.00
